Station Historical Data
Daily Summary for April 20, 2017 Units:  English    Metric   Both
« Previous Day
Next Day »
Daily Weekly Monthly Yearly Custom
  High: Low: Average:
Temperature: 55.4 °F 44.5 °F 47.9 °F
Dew Point: 52.8 °F 41.0 °F 45 °F
Humidity: 94% 84% 90%
Wind Speed: 16.0mph 0.0mph 4.8mph
Wind Gust: 21.0mph - -
Wind- - ENE
Pressure: 30.14 in 29.79 in -
Precipitation: 0.00 in    
Historical Graphs
 
 
Tabular Data for April 20, 2017
Time Temperature Dew Point Pressure Wind Wind Speed Wind Gust Humidity Rainfall Rate (Hourly)
00:04 55.4 °F 52.8 °F 30.08 in ENE 2.0 mph 6.0 mph 91% 0.00 in
00:09 55.2 °F 52.6 °F 30.08 in NE 2.0 mph 5.0 mph 91% 0.00 in
00:14 55.0 °F 52.1 °F 30.08 in NE 3.0 mph 6.0 mph 90% 0.00 in
00:19 54.8 °F 51.9 °F 30.09 in NE 2.0 mph 6.0 mph 90% 0.00 in
00:24 54.6 °F 51.4 °F 30.09 in NE 2.0 mph 5.0 mph 89% 0.00 in
00:29 54.6 °F 51.1 °F 30.09 in NE 2.0 mph 4.0 mph 88% 0.00 in
00:34 54.4 °F 50.6 °F 30.09 in Calm   3.0 mph 87% 0.00 in
00:39 54.2 °F 50.4 °F 30.09 in NE 1.0 mph 3.0 mph 87% 0.00 in
00:44 54.0 °F 50.2 °F 30.09 in Calm     87% 0.00 in
00:49 53.9 °F 50.1 °F 30.09 in Calm     87% 0.00 in
00:54 53.8 °F 50.0 °F 30.10 in Calm     87% 0.00 in
00:59 53.6 °F 49.8 °F 30.10 in Calm     87% 0.00 in
01:04 53.5 °F 49.7 °F 30.09 in Calm     87% 0.00 in
01:09 53.5 °F 49.7 °F 30.09 in Calm   3.0 mph 87% 0.00 in
01:14 53.3 °F 49.8 °F 30.09 in NE 1.0 mph 3.0 mph 88% 0.00 in
01:19 53.2 °F 49.7 °F 30.09 in NE 1.0 mph 3.0 mph 88% 0.00 in
01:24 53.2 °F 49.7 °F 30.09 in Calm   2.0 mph 88% 0.00 in
01:29 53.0 °F 49.5 °F 30.09 in NE 2.0 mph 2.0 mph 88% 0.00 in
01:34 52.8 °F 49.3 °F 30.09 in Calm   2.0 mph 88% 0.00 in
01:39 52.7 °F 49.2 °F 30.09 in Calm   2.0 mph 88% 0.00 in
01:44 52.6 °F 49.1 °F 30.09 in Calm     88% 0.00 in
01:49 52.5 °F 49.0 °F 30.09 in NE 1.0 mph 3.0 mph 88% 0.00 in
01:54 52.5 °F 49.0 °F 30.09 in Calm   2.0 mph 88% 0.00 in
01:59 52.4 °F 48.9 °F 30.09 in Calm   4.0 mph 88% 0.00 in
02:04 52.4 °F 48.9 °F 30.09 in NE 1.0 mph 3.0 mph 88% 0.00 in
02:09 52.3 °F 48.9 °F 30.09 in NE 1.0 mph 3.0 mph 88% 0.00 in
02:14 52.3 °F 48.5 °F 30.09 in NNE 2.0 mph 5.0 mph 87% 0.00 in
02:19 52.2 °F 48.4 °F 30.08 in NNE 2.0 mph 5.0 mph 87% 0.00 in
02:24 52.1 °F 48.0 °F 30.09 in NNE 2.0 mph 4.0 mph 86% 0.00 in
02:29 52.1 °F 48.0 °F 30.09 in North 3.0 mph 4.0 mph 86% 0.00 in
02:34 52.1 °F 47.7 °F 30.08 in NNE 1.0 mph 3.0 mph 85% 0.00 in
02:39 52.0 °F 47.9 °F 30.09 in NNE 1.0 mph 3.0 mph 86% 0.00 in
02:44 52.0 °F 47.9 °F 30.09 in NNE 1.0 mph 3.0 mph 86% 0.00 in
02:49 51.9 °F 48.2 °F 30.09 in NNE 1.0 mph 4.0 mph 87% 0.00 in
02:54 51.7 °F 48.0 °F 30.09 in NNE 1.0 mph 3.0 mph 87% 0.00 in
02:59 51.5 °F 47.8 °F 30.09 in NW 2.0 mph 5.0 mph 87% 0.00 in
03:04 51.4 °F 47.7 °F 30.09 in NNW 2.0 mph 3.0 mph 87% 0.00 in
03:09 51.4 °F 47.7 °F 30.09 in NW 2.0 mph 4.0 mph 87% 0.00 in
03:14 51.2 °F 47.2 °F 30.09 in North 2.0 mph 5.0 mph 86% 0.00 in
03:19 51.1 °F 47.1 °F 30.09 in NNE 4.0 mph 6.0 mph 86% 0.00 in
03:24 50.8 °F 46.5 °F 30.09 in NNE 2.0 mph 7.0 mph 85% 0.00 in
03:29 50.7 °F 46.4 °F 30.09 in North 5.0 mph 7.0 mph 85% 0.00 in
03:34 50.5 °F 45.8 °F 30.09 in North 5.0 mph 10.0 mph 84% 0.00 in
03:39 50.4 °F 45.7 °F 30.09 in NE 4.0 mph 10.0 mph 84% 0.00 in
03:44 50.2 °F 45.9 °F 30.09 in NE 5.0 mph 12.0 mph 85% 0.00 in
03:49 50.1 °F 45.8 °F 30.09 in NE 4.0 mph 12.0 mph 85% 0.00 in
03:54 50.1 °F 45.8 °F 30.09 in NE 4.0 mph 10.0 mph 85% 0.00 in
03:59 50.1 °F 46.1 °F 30.09 in ENE 7.0 mph 15.0 mph 86% 0.00 in
04:04 50.1 °F 46.1 °F 30.09 in NE 6.0 mph 15.0 mph 86% 0.00 in
04:09 50.1 °F 46.1 °F 30.10 in NNE 4.0 mph 10.0 mph 86% 0.00 in
04:14 50.1 °F 46.4 °F 30.10 in NE 8.0 mph 14.0 mph 87% 0.00 in
04:19 50.1 °F 46.4 °F 30.10 in NE 10.0 mph 15.0 mph 87% 0.00 in
04:24 50.1 °F 46.4 °F 30.10 in NE 3.0 mph 12.0 mph 87% 0.00 in
04:29 50.0 °F 46.3 °F 30.10 in NE 7.0 mph 21.0 mph 87% 0.00 in
04:34 49.9 °F 46.2 °F 30.10 in NE 7.0 mph 21.0 mph 87% 0.00 in
04:39 49.8 °F 46.1 °F 30.10 in NE 8.0 mph 16.0 mph 87% 0.00 in
04:44 49.7 °F 46.0 °F 30.10 in NE 8.0 mph 17.0 mph 87% 0.00 in
04:49 49.6 °F 45.9 °F 30.10 in NE 8.0 mph 17.0 mph 87% 0.00 in
04:54 49.6 °F 46.2 °F 30.10 in ENE 7.0 mph 10.0 mph 88% 0.00 in
04:59 49.6 °F 46.2 °F 30.10 in NE 8.0 mph 11.0 mph 88% 0.00 in
05:04 49.6 °F 46.2 °F 30.10 in NE 4.0 mph 10.0 mph 88% 0.00 in
05:09 49.6 °F 46.2 °F 30.10 in NE 5.0 mph 10.0 mph 88% 0.00 in
05:14 49.4 °F 46.0 °F 30.11 in NE 5.0 mph 12.0 mph 88% 0.00 in
05:19 49.3 °F 45.9 °F 30.11 in NE 5.0 mph 12.0 mph 88% 0.00 in
05:24 49.3 °F 45.9 °F 30.11 in NE 5.0 mph 12.0 mph 88% 0.00 in
05:29 49.2 °F 45.8 °F 30.11 in NE 6.0 mph 12.0 mph 88% 0.00 in
05:34 49.1 °F 46.0 °F 30.11 in NE 7.0 mph 12.0 mph 89% 0.00 in
05:39 48.9 °F 45.8 °F 30.10 in NE 6.0 mph 8.0 mph 89% 0.00 in
05:44 48.8 °F 45.7 °F 30.10 in NE 4.0 mph 11.0 mph 89% 0.00 in
05:49 48.7 °F 45.6 °F 30.11 in NE 5.0 mph 16.0 mph 89% 0.00 in
05:54 48.5 °F 45.4 °F 30.11 in NNE 7.0 mph 11.0 mph 89% 0.00 in
05:59 48.4 °F 45.6 °F 30.12 in NNW 8.0 mph 12.0 mph 90% 0.00 in
06:04 48.3 °F 45.5 °F 30.11 in NE 6.0 mph 13.0 mph 90% 0.00 in
06:09 48.1 °F 45.3 °F 30.10 in NE 7.0 mph 14.0 mph 90% 0.00 in
06:14 47.8 °F 45.0 °F 30.11 in NE 8.0 mph 12.0 mph 90% 0.00 in
06:19 47.6 °F 44.8 °F 30.11 in NNE 3.0 mph 14.0 mph 90% 0.00 in
06:24 47.5 °F 44.7 °F 30.12 in NE 2.0 mph 8.0 mph 90% 0.00 in
06:29 47.4 °F 44.6 °F 30.12 in NE 4.0 mph 8.0 mph 90% 0.00 in
06:34 47.4 °F 44.6 °F 30.11 in NE 5.0 mph 12.0 mph 90% 0.00 in
06:39 47.2 °F 44.4 °F 30.11 in NE 6.0 mph 15.0 mph 90% 0.00 in
06:44 46.9 °F 44.1 °F 30.11 in NE 7.0 mph 15.0 mph 90% 0.00 in
06:49 46.7 °F 43.9 °F 30.12 in ENE 4.0 mph 16.0 mph 90% 0.00 in
06:54 46.5 °F 44.0 °F 30.11 in NE 8.0 mph 15.0 mph 91% 0.00 in
06:59 46.3 °F 43.8 °F 30.12 in NE 8.0 mph 15.0 mph 91% 0.00 in
07:04 46.0 °F 43.2 °F 30.12 in ENE 8.0 mph 17.0 mph 90% 0.00 in
07:09 45.7 °F 42.9 °F 30.11 in NE 7.0 mph 17.0 mph 90% 0.00 in
07:14 45.4 °F 42.6 °F 30.11 in NE 5.0 mph 15.0 mph 90% 0.00 in
07:19 45.3 °F 42.8 °F 30.11 in NE 8.0 mph 14.0 mph 91% 0.00 in
07:24 45.2 °F 42.7 °F 30.11 in NE 8.0 mph 14.0 mph 91% 0.00 in
07:29 45.0 °F 42.5 °F 30.11 in NE 8.0 mph 14.0 mph 91% 0.00 in
07:34 45.0 °F 42.5 °F 30.11 in NE 8.0 mph 14.0 mph 91% 0.00 in
07:39 45.0 °F 42.5 °F 30.11 in ENE 7.0 mph 17.0 mph 91% 0.00 in
07:44 44.8 °F 42.3 °F 30.11 in ENE 7.0 mph 17.0 mph 91% 0.00 in
07:49 44.7 °F 42.2 °F 30.11 in NE 7.0 mph 16.0 mph 91% 0.00 in
07:54 44.6 °F 42.1 °F 30.12 in NE 9.0 mph 9.0 mph 91% 0.00 in
07:59 44.5 °F 42.0 °F 30.12 in East 8.0 mph 13.0 mph 91% 0.00 in
08:04 44.5 °F 42.0 °F 30.12 in NE 8.0 mph 13.0 mph 91% 0.00 in
08:09 44.6 °F 42.1 °F 30.12 in East 2.0 mph 12.0 mph 91% 0.00 in
08:14 44.7 °F 42.2 °F 30.12 in ENE 5.0 mph 12.0 mph 91% 0.00 in
08:19 44.8 °F 42.3 °F 30.13 in NE 6.0 mph 13.0 mph 91% 0.00 in
08:24 45.0 °F 42.5 °F 30.13 in ENE 5.0 mph 13.0 mph 91% 0.00 in
08:29 44.8 °F 42.0 °F 30.14 in ENE 5.0 mph 11.0 mph 90% 0.00 in
08:34 44.8 °F 42.0 °F 30.14 in ENE 6.0 mph 11.0 mph 90% 0.00 in
08:39 44.9 °F 42.1 °F 30.14 in ENE 6.0 mph 12.0 mph 90% 0.00 in
08:44 44.9 °F 41.9 °F 30.13 in East 6.0 mph 13.0 mph 89% 0.00 in
08:49 44.9 °F 41.9 °F 30.12 in East 5.0 mph 11.0 mph 89% 0.00 in
08:54 45.0 °F 42.0 °F 30.13 in East 6.0 mph 14.0 mph 89% 0.00 in
08:59 44.9 °F 41.6 °F 30.12 in East 6.0 mph 16.0 mph 88% 0.00 in
09:04 44.7 °F 41.4 °F 30.12 in ENE 7.0 mph 16.0 mph 88% 0.00 in
09:09 44.6 °F 41.3 °F 30.12 in ENE 8.0 mph 13.0 mph 88% 0.00 in
09:14 44.6 °F 41.3 °F 30.12 in NE 4.0 mph 12.0 mph 88% 0.00 in
09:19 44.8 °F 41.2 °F 30.11 in ENE 7.0 mph 13.0 mph 87% 0.00 in
09:24 44.8 °F 41.2 °F 30.11 in ENE 7.0 mph 13.0 mph 87% 0.00 in
09:29 44.6 °F 41.0 °F 30.11 in ENE 5.0 mph 14.0 mph 87% 0.00 in
09:34 44.7 °F 41.1 °F 30.11 in NE 4.0 mph 13.0 mph 87% 0.00 in
09:39 44.8 °F 41.2 °F 30.12 in East 9.0 mph 13.0 mph 87% 0.00 in
09:44 45.1 °F 41.5 °F 30.12 in ENE 11.0 mph 11.0 mph 87% 0.00 in
09:49 45.2 °F 41.3 °F 30.12 in ESE 8.0 mph 14.0 mph 86% 0.00 in
09:54 45.1 °F 41.2 °F 30.11 in East 7.0 mph 14.0 mph 86% 0.00 in
09:59 44.9 °F 41.0 °F 30.12 in East 7.0 mph 15.0 mph 86% 0.00 in
10:04 45.2 °F 41.3 °F 30.13 in East 11.0 mph 11.0 mph 86% 0.00 in
10:09 45.1 °F 41.2 °F 30.12 in ENE 3.0 mph 11.0 mph 86% 0.00 in
10:14 45.2 °F 41.6 °F 30.12 in East 8.0 mph 13.0 mph 87% 0.00 in
10:19 45.2 °F 41.3 °F 30.12 in NE 10.0 mph 12.0 mph 86% 0.00 in
10:24 45.2 °F 41.3 °F 30.11 in ENE 6.0 mph 15.0 mph 86% 0.00 in
10:29 45.4 °F 41.8 °F 30.11 in ENE 6.0 mph 15.0 mph 87% 0.00 in
10:34 45.7 °F 41.8 °F 30.11 in ENE 3.0 mph 14.0 mph 86% 0.00 in
10:39 45.9 °F 41.9 °F 30.11 in East 7.0 mph 13.0 mph 86% 0.00 in
10:44 46.0 °F 42.0 °F 30.11 in ENE 7.0 mph 11.0 mph 86% 0.00 in
10:49 45.9 °F 41.6 °F 30.11 in NE 12.0 mph 13.0 mph 85% 0.00 in
10:54 46.0 °F 41.7 °F 30.12 in NE 7.0 mph 14.0 mph 85% 0.00 in
10:59 46.0 °F 41.7 °F 30.12 in NE 8.0 mph 14.0 mph 85% 0.00 in
11:04 46.0 °F 41.7 °F 30.12 in NE 8.0 mph 16.0 mph 85% 0.00 in
11:09 45.8 °F 41.5 °F 30.12 in NE 8.0 mph 16.0 mph 85% 0.00 in
11:14 45.8 °F 41.5 °F 30.12 in NE 9.0 mph 16.0 mph 85% 0.00 in
11:19 45.7 °F 41.4 °F 30.10 in NE 11.0 mph 18.0 mph 85% 0.00 in
11:24 45.7 °F 41.4 °F 30.09 in NE 9.0 mph 18.0 mph 85% 0.00 in
11:29 45.7 °F 41.4 °F 30.09 in ENE 5.0 mph 15.0 mph 85% 0.00 in
11:34 45.7 °F 41.4 °F 30.08 in East 7.0 mph 18.0 mph 85% 0.00 in
11:39 45.7 °F 41.4 °F 30.08 in NE 8.0 mph 20.0 mph 85% 0.00 in
11:44 45.6 °F 41.4 °F 30.08 in ENE 10.0 mph 20.0 mph 85% 0.00 in
11:49 45.6 °F 41.4 °F 30.07 in NE 10.0 mph 18.0 mph 85% 0.00 in
11:54 45.6 °F 41.4 °F 30.08 in ENE 8.0 mph 15.0 mph 85% 0.00 in
11:59 45.5 °F 41.6 °F 30.08 in ENE 7.0 mph 18.0 mph 86% 0.02 in
12:04 45.2 °F 41.6 °F 30.09 in NE 7.0 mph 18.0 mph 87% 0.03 in
12:09 45.0 °F 41.4 °F 30.09 in NE 9.0 mph 16.0 mph 87% 0.03 in
12:14 45.0 °F 41.7 °F 30.07 in East 8.0 mph 12.0 mph 88% 0.05 in
12:19 45.0 °F 41.7 °F 30.08 in ENE 7.0 mph 13.0 mph 88% 0.06 in
12:24 44.9 °F 41.9 °F 30.08 in NE 9.0 mph 17.0 mph 89% 0.06 in
12:34 44.5 °F 41.5 °F 30.07 in NE 6.0 mph 13.0 mph 89% 0.08 in
12:39 44.6 °F 41.8 °F 30.06 in East 7.0 mph 10.0 mph 90% 0.11 in
12:44 44.6 °F 41.8 °F 30.06 in NE 4.0 mph 12.0 mph 90% 0.13 in
12:49 44.6 °F 41.8 °F 30.05 in ENE 6.0 mph 14.0 mph 90% 0.14 in
12:54 44.6 °F 41.8 °F 30.04 in ENE 7.0 mph 16.0 mph 90% 0.15 in
12:59 44.6 °F 41.8 °F 30.03 in ENE 7.0 mph 16.0 mph 90% 0.13 in
13:04 44.6 °F 41.8 °F 30.03 in ENE 9.0 mph 15.0 mph 90% 0.12 in
13:09 44.7 °F 41.9 °F 30.03 in ESE 9.0 mph 19.0 mph 90% 0.12 in
13:14 44.6 °F 41.8 °F 30.03 in ENE 8.0 mph 19.0 mph 90% 0.10 in
13:19 44.7 °F 41.9 °F 30.03 in ENE 7.0 mph 14.0 mph 90% 0.09 in
13:24 44.7 °F 41.9 °F 30.03 in ENE 7.0 mph 16.0 mph 90% 0.09 in
13:29 44.6 °F 41.8 °F 30.03 in ENE 9.0 mph 15.0 mph 90% 0.09 in
13:34 44.6 °F 41.8 °F 30.03 in NE 5.0 mph 13.0 mph 90% 0.07 in
13:39 44.8 °F 42.0 °F 30.03 in NE 9.0 mph 15.0 mph 90% 0.04 in
13:44 44.7 °F 41.9 °F 30.03 in ENE 7.0 mph 15.0 mph 90% 0.02 in
13:49 44.9 °F 42.1 °F 30.02 in NE 8.0 mph 11.0 mph 90% 0.01 in
13:59 44.9 °F 42.1 °F 30.01 in ENE 3.0 mph 14.0 mph 90% 0.00 in
14:04 45.0 °F 42.2 °F 30.01 in ENE 9.0 mph 15.0 mph 90% 0.01 in
14:09 44.9 °F 42.1 °F 30.01 in NE 5.0 mph 10.0 mph 90% 0.02 in
14:14 44.9 °F 42.1 °F 30.01 in ENE 6.0 mph 13.0 mph 90% 0.04 in
14:19 44.7 °F 41.9 °F 30.00 in East 5.0 mph 13.0 mph 90% 0.12 in
14:24 44.6 °F 41.8 °F 30.01 in East 5.0 mph 13.0 mph 90% 0.16 in
14:29 44.6 °F 41.8 °F 30.00 in East 6.0 mph 11.0 mph 90% 0.22 in
14:34 44.6 °F 42.1 °F 30.00 in East 5.0 mph 9.0 mph 91% 0.26 in
14:39 44.7 °F 42.2 °F 29.99 in East 5.0 mph 11.0 mph 91% 0.30 in
14:44 44.8 °F 42.3 °F 29.98 in East 6.0 mph 15.0 mph 91% 0.31 in
14:49 44.9 °F 42.4 °F 29.98 in East 6.0 mph 15.0 mph 91% 0.32 in
14:54 45.1 °F 42.6 °F 29.98 in ENE 6.0 mph 13.0 mph 91% 0.33 in
14:59 45.3 °F 43.1 °F 29.97 in East 7.0 mph 11.0 mph 92% 0.34 in
15:04 45.2 °F 42.7 °F 29.97 in ENE 6.0 mph 13.0 mph 91% 0.35 in
15:09 45.2 °F 42.7 °F 29.97 in ESE 4.0 mph 13.0 mph 91% 0.36 in
15:14 45.2 °F 42.7 °F 29.95 in ENE 4.0 mph 10.0 mph 91% 0.36 in
15:19 45.4 °F 43.2 °F 29.94 in ENE 4.0 mph 9.0 mph 92% 0.30 in
15:24 45.7 °F 43.5 °F 29.94 in East 2.0 mph 14.0 mph 92% 0.27 in
15:29 45.7 °F 43.5 °F 29.95 in ENE 4.0 mph 10.0 mph 92% 0.21 in
15:34 45.8 °F 43.6 °F 29.95 in ENE 5.0 mph 10.0 mph 92% 0.17 in
15:39 45.9 °F 43.7 °F 29.95 in East 4.0 mph 8.0 mph 92% 0.14 in
15:44 46.2 °F 44.0 °F 29.94 in East 4.0 mph 9.0 mph 92% 0.14 in
15:54 46.5 °F 44.3 °F 29.91 in SE 5.0 mph 13.0 mph 92% 0.16 in
15:59 46.6 °F 44.1 °F 29.91 in SE 5.0 mph 13.0 mph 91% 0.16 in
16:04 46.7 °F 44.5 °F 29.91 in East 6.0 mph 13.0 mph 92% 0.14 in
16:09 46.9 °F 44.7 °F 29.92 in East 3.0 mph 11.0 mph 92% 0.13 in
16:14 47.2 °F 45.0 °F 29.91 in NE 6.0 mph 10.0 mph 92% 0.11 in
16:19 47.6 °F 45.1 °F 29.90 in East 6.0 mph 11.0 mph 91% 0.09 in
16:24 48.1 °F 45.9 °F 29.91 in NE 6.0 mph 13.0 mph 92% 0.08 in
16:29 48.4 °F 45.9 °F 29.91 in NE 6.0 mph 13.0 mph 91% 0.08 in
16:34 48.6 °F 46.1 °F 29.91 in NE 6.0 mph 13.0 mph 91% 0.08 in
16:39 48.5 °F 46.0 °F 29.91 in NE 6.0 mph 13.0 mph 91% 0.07 in
16:44 48.3 °F 45.8 °F 29.91 in NE 6.0 mph 13.0 mph 91% 0.06 in
16:49 48.1 °F 45.3 °F 29.91 in NE 7.0 mph 13.0 mph 90% 0.05 in
16:54 47.9 °F 45.1 °F 29.91 in NE 6.0 mph 12.0 mph 90% 0.04 in
16:59 47.7 °F 45.2 °F 29.91 in ESE 3.0 mph 9.0 mph 91% 0.05 in
17:04 47.6 °F 45.1 °F 29.91 in NE 4.0 mph 11.0 mph 91% 0.06 in
17:09 47.4 °F 44.9 °F 29.92 in NE 5.0 mph 9.0 mph 91% 0.08 in
17:14 47.2 °F 44.7 °F 29.89 in East 6.0 mph 14.0 mph 91% 0.19 in
17:19 47.0 °F 44.5 °F 29.90 in ENE 4.0 mph 11.0 mph 91% 0.24 in
17:24 47.0 °F 44.8 °F 29.89 in ESE 3.0 mph 9.0 mph 92% 0.33 in
17:29 47.3 °F 45.1 °F 29.89 in ESE 4.0 mph 9.0 mph 92% 0.37 in
17:34 47.5 °F 45.3 °F 29.87 in ESE 4.0 mph 9.0 mph 92% 0.43 in
17:39 47.8 °F 45.6 °F 29.88 in East 3.0 mph 10.0 mph 92% 0.47 in
17:44 48.0 °F 45.8 °F 29.87 in ENE 4.0 mph 9.0 mph 92% 0.50 in
17:49 48.3 °F 46.4 °F 29.87 in ENE 2.0 mph 8.0 mph 93% 0.50 in
17:54 48.5 °F 46.6 °F 29.87 in East 3.0 mph 9.0 mph 93% 0.49 in
17:59 48.7 °F 46.8 °F 29.87 in ENE 4.0 mph 9.0 mph 93% 0.47 in
18:09 49.1 °F 47.2 °F 29.86 in ENE 4.0 mph 12.0 mph 93% 0.43 in
18:14 49.3 °F 47.4 °F 29.87 in NE 5.0 mph 12.0 mph 93% 0.31 in
18:19 49.3 °F 47.4 °F 29.86 in NE 2.0 mph 9.0 mph 93% 0.28 in
18:24 49.3 °F 47.4 °F 29.85 in East 6.0 mph 10.0 mph 93% 0.19 in
18:29 49.2 °F 47.3 °F 29.86 in NE 3.0 mph 9.0 mph 93% 0.16 in
18:34 49.2 °F 47.3 °F 29.87 in NNW 3.0 mph 10.0 mph 93% 0.11 in
18:39 49.2 °F 47.3 °F 29.85 in East 5.0 mph 9.0 mph 93% 0.12 in
18:44 49.3 °F 47.4 °F 29.85 in NE 1.0 mph 11.0 mph 93% 0.11 in
18:49 49.4 °F 47.5 °F 29.84 in ENE 4.0 mph 12.0 mph 93% 0.10 in
18:54 49.4 °F 47.5 °F 29.84 in East 6.0 mph 10.0 mph 93% 0.10 in
18:59 49.6 °F 47.7 °F 29.85 in ENE 4.0 mph 10.0 mph 93% 0.10 in
19:04 49.7 °F 47.8 °F 29.85 in NE 3.0 mph 10.0 mph 93% 0.10 in
19:09 49.6 °F 47.7 °F 29.83 in East 5.0 mph 9.0 mph 93% 0.09 in
19:19 49.7 °F 47.8 °F 29.84 in NE 11.0 mph 11.0 mph 93% 0.09 in
19:24 49.6 °F 47.7 °F 29.83 in NE 5.0 mph 11.0 mph 93% 0.09 in
19:29 49.5 °F 47.6 °F 29.83 in NE 6.0 mph 12.0 mph 93% 0.08 in
19:39 49.4 °F 47.5 °F 29.84 in NNE 5.0 mph 9.0 mph 93% 0.02 in
19:44 49.0 °F 46.8 °F 29.86 in NNW 16.0 mph 18.0 mph 92% 0.00 in
19:49 47.7 °F 45.2 °F 29.83 in NE 6.0 mph 16.0 mph 91% 0.00 in
19:54 47.0 °F 44.8 °F 29.84 in NNE 4.0 mph 16.0 mph 92% 0.02 in
19:59 46.8 °F 44.6 °F 29.87 in North 5.0 mph 14.0 mph 92% 0.05 in
20:04 46.6 °F 44.4 °F 29.87 in NNE 5.0 mph 12.0 mph 92% 0.12 in
20:09 46.6 °F 44.7 °F 29.86 in NE 8.0 mph 13.0 mph 93% 0.16 in
20:14 46.5 °F 44.6 °F 29.87 in NNE 5.0 mph 12.0 mph 93% 0.22 in
20:19 46.6 °F 44.7 °F 29.95 in WSW 4.0 mph 13.0 mph 93% 0.24 in
20:24 46.5 °F 44.6 °F 29.89 in NW 6.0 mph 13.0 mph 93% 0.31 in
20:29 46.4 °F 44.5 °F 29.89 in NE 5.0 mph 13.0 mph 93% 0.35 in
20:34 46.4 °F 44.5 °F 29.90 in NE 4.0 mph 13.0 mph 93% 0.37 in
20:39 46.3 °F 44.4 °F 29.89 in ENE 3.0 mph 8.0 mph 93% 0.38 in
20:44 46.3 °F 44.4 °F 29.89 in ENE 7.0 mph 8.0 mph 93% 0.39 in
20:49 46.3 °F 44.4 °F 29.88 in East 5.0 mph 11.0 mph 93% 0.41 in
20:54 46.3 °F 44.4 °F 29.87 in ENE 5.0 mph 10.0 mph 93% 0.40 in
20:59 46.5 °F 44.6 °F 29.86 in ENE 7.0 mph 11.0 mph 93% 0.39 in
21:04 46.6 °F 44.7 °F 29.85 in ENE 5.0 mph 10.0 mph 93% 0.32 in
21:09 46.8 °F 44.9 °F 29.85 in East 6.0 mph 8.0 mph 93% 0.28 in
21:14 47.0 °F 45.1 °F 29.84 in East 2.0 mph 7.0 mph 93% 0.23 in
21:19 47.1 °F 45.2 °F 29.84 in East 3.0 mph 10.0 mph 93% 0.22 in
21:24 47.2 °F 45.3 °F 29.84 in ESE 4.0 mph 10.0 mph 93% 0.16 in
21:29 47.4 °F 45.5 °F 29.84 in ESE 4.0 mph 10.0 mph 93% 0.12 in
21:34 47.4 °F 45.5 °F 29.83 in ESE 3.0 mph 9.0 mph 93% 0.10 in
21:39 47.4 °F 45.5 °F 29.83 in East 4.0 mph 13.0 mph 93% 0.09 in
21:44 47.4 °F 45.5 °F 29.83 in East 4.0 mph 13.0 mph 93% 0.07 in
21:49 47.5 °F 45.6 °F 29.82 in East 3.0 mph 7.0 mph 93% 0.06 in
21:54 47.6 °F 45.7 °F 29.81 in ENE 3.0 mph 8.0 mph 93% 0.05 in
21:59 47.8 °F 45.9 °F 29.81 in East 3.0 mph 8.0 mph 93% 0.03 in
22:04 47.9 °F 46.0 °F 29.80 in SSE 3.0 mph 3.0 mph 93% 0.03 in
22:14 48.2 °F 46.3 °F 29.80 in Calm   2.0 mph 93% 0.02 in
22:19 48.4 °F 46.5 °F 29.80 in Calm     93% 0.01 in
22:24 48.6 °F 47.0 °F 29.80 in Calm     94% 0.00 in
22:29 48.8 °F 47.2 °F 29.79 in Calm     94% 0.00 in
22:34 49.0 °F 47.1 °F 29.80 in Calm     93% 0.00 in
22:44 49.4 °F 47.7 °F 29.80 in Calm     94% 0.00 in
22:49 49.4 °F 47.7 °F 29.80 in Calm     94% 0.00 in
22:54 49.5 °F 47.8 °F 29.80 in Calm     94% 0.00 in
22:59 49.5 °F 47.8 °F 29.80 in Calm     94% 0.00 in
23:04 49.4 °F 47.7 °F 29.80 in Calm     94% 0.00 in
23:09 49.5 °F 47.8 °F 29.79 in Calm     94% 0.00 in
23:14 49.6 °F 47.9 °F 29.79 in Calm     94% 0.00 in
23:19 49.6 °F 47.9 °F 29.79 in Calm     94% 0.00 in
23:24 49.6 °F 47.9 °F 29.79 in Calm     94% 0.00 in
23:29 49.6 °F 47.9 °F 29.79 in Calm     94% 0.00 in
23:34 49.6 °F 47.9 °F 29.79 in Calm     94% 0.00 in
23:39 49.7 °F 48.0 °F 29.80 in Calm     94% 0.00 in
23:44 49.8 °F 48.1 °F 29.80 in Calm     94% 0.00 in
23:49 50.0 °F 48.3 °F 29.80 in Calm     94% 0.00 in
23:59 50.5 °F 48.8 °F 29.80 in Calm     94% 0.01 in
Buffalo, New York, USA
Compliments of Weather Underground - 2.25 mb